Adelma Beach, Washington
Current Conditions -  °F | °C
As of 12:56 AM on Saturday 25 Oct 2014 (Local Time) from KNUW Reporting Station
Overcast Overcast  
Wind Chill: 52°   Ceiling: 5500
Heat Index: 52°   Visibility: 10mi
Dew Point: 48°   Wind: 6mph
Humidity: 86%   Direction: 70°ENE
Pressure: 29.74"   Gusts: NA
Location:  48.026°N, 122.859°W
Report Text: KNUW 250756Z 07005KT 10SM SCT040 BKN055 OVC080 11/09 A2974 RMK AO2 RAE50 SLP075 P0002 T01110089 $
Loading
Personal Weather Stations






























Interactive Weather Map
Tropical Storm Tracking
New forecast layout! Learn more

10-Day Weather Forecast

Advertisements
Track Severe Weather on mobile